Time;durP1;ratioP1;P1;durP2;ratioP2;P2;SDS_P1;SDS_P2;PMS_P1;PMS_P2;Temp;Humidity;BMP_temperature;BMP_pressure;BME280_temperature;BME280_humidity;BME280_pressure;Samples;Min_cycle;Max_cycle;Signal;HPM_P1;HPM_P2
2023/03/08 00:02:14;;;;;;;;;23.00;14.75;;;;;7.31;100.00;99680.84;5035918;28;52645;-82
2023/03/08 00:04:39;;;;;;;;;17.75;12.00;;;;;7.33;100.00;99685.06;5035786;28;63099;-82
2023/03/08 00:07:04;;;;;;;;;12.25;12.25;;;;;7.40;100.00;99677.13;5035520;28;60222;-81
2023/03/08 00:09:29;;;;;;;;;16.25;10.75;;;;;7.45;100.00;99673.50;5034908;28;45368;-82
2023/03/08 00:11:55;;;;;;;;;13.50;12.25;;;;;7.44;100.00;99669.19;5035644;28;52801;-81
2023/03/08 00:14:21;;;;;;;;;17.50;13.50;;;;;7.46;100.00;99671.75;5035282;28;70383;-82
2023/03/08 00:16:46;;;;;;;;;19.50;13.50;;;;;7.45;100.00;99665.72;5035753;28;45376;-83
2023/03/08 00:19:12;;;;;;;;;17.75;14.50;;;;;7.44;100.00;99652.81;5034940;28;45317;-82
2023/03/08 00:21:37;;;;;;;;;11.00;9.25;;;;;7.44;100.00;99655.41;5035434;28;59354;-82
2023/03/08 00:24:03;;;;;;;;;19.00;15.50;;;;;7.44;100.00;99648.50;5033893;28;70974;-83
2023/03/08 00:26:28;;;;;;;;;15.75;14.75;;;;;7.42;100.00;99642.50;5035635;28;45357;-84
2023/03/08 00:28:53;;;;;;;;;17.25;15.00;;;;;7.39;100.00;99640.03;5035661;28;46096;-82
2023/03/08 00:31:19;;;;;;;;;23.75;13.00;;;;;7.35;100.00;99641.03;5035745;28;50962;-82
2023/03/08 00:33:44;;;;;;;;;21.75;11.75;;;;;7.28;100.00;99627.47;5035094;28;67922;-83
2023/03/08 00:36:15;;;;;;;;;15.50;11.25;;;;;7.22;100.00;99625.03;5035219;28;55448;-82
2023/03/08 00:38:41;;;;;;;;;28.25;15.25;;;;;7.24;100.00;99622.41;5035737;28;45348;-82
2023/03/08 00:41:06;;;;;;;;;27.25;11.75;;;;;7.25;100.00;99606.84;5035826;28;45439;-83
2023/03/08 00:58:41;;;;;;;;;22.25;14.50;;;;;7.04;100.00;99535.94;5151263;27;45401;-77
2023/03/08 01:01:07;;;;;;;;;21.25;13.25;;;;;7.11;100.00;99540.03;5133653;27;45824;-78
2023/03/08 01:03:34;;;;;;;;;20.75;13.50;;;;;7.14;100.00;99532.13;5133971;27;45363;-77
2023/03/08 01:06:05;;;;;;;;;14.75;10.25;;;;;7.15;100.00;99522.63;5132341;27;45456;-78
2023/03/08 01:08:30;;;;;;;;;22.00;10.50;;;;;7.13;100.00;99511.47;5133462;27;47159;-78
2023/03/08 01:10:58;;;;;;;;;19.25;10.75;;;;;7.15;100.00;99494.16;5133047;27;69423;-78
2023/03/08 01:13:29;;;;;;;;;22.75;15.75;;;;;7.13;100.00;99504.59;5132624;27;45358;-78
2023/03/08 01:15:54;;;;;;;;;18.25;12.00;;;;;7.09;100.00;99500.38;5133684;27;45370;-78
2023/03/08 01:18:20;;;;;;;;;22.25;15.75;;;;;7.08;100.00;99498.72;5133567;27;45425;-78
2023/03/08 01:20:58;;;;;;;;;25.50;12.00;;;;;7.11;100.00;99490.00;5133281;27;45976;-78
2023/03/08 01:23:23;;;;;;;;;20.00;14.50;;;;;7.11;100.00;99480.50;5115074;27;45227;-79
2023/03/08 01:26:16;;;;;;;;;16.50;14.50;;;;;7.16;100.00;99465.63;5133119;27;45586;-80
2023/03/08 01:28:42;;;;;;;;;19.00;15.25;;;;;7.21;100.00;99456.91;5133119;27;45410;-79
2023/03/08 01:31:16;;;;;;;;;18.25;12.50;;;;;7.24;100.00;99469.72;5135181;27;45281;-79
2023/03/08 01:33:42;;;;;;;;;16.25;13.00;;;;;7.21;100.00;99449.13;5133500;27;45277;-79
2023/03/08 01:36:10;;;;;;;;;20.00;15.00;;;;;7.19;100.00;99446.59;5114845;27;45277;-79
2023/03/08 01:38:36;;;;;;;;;8.75;4.25;;;;;7.20;100.00;99437.06;5132071;27;46669;-79
2023/03/08 01:41:02;;;;;;;;;20.75;13.75;;;;;7.23;100.00;99431.81;5114785;27;45924;-79
2023/03/08 01:43:34;;;;;;;;;20.25;11.25;;;;;7.24;100.00;99428.28;5133479;27;45377;-79
2023/03/08 01:46:30;;;;;;;;;16.50;13.25;;;;;7.22;100.00;99418.00;5114737;27;45507;-79
2023/03/08 01:48:59;;;;;;;;;19.00;12.25;;;;;7.25;100.00;99433.41;5114633;27;45318;-79
2023/03/08 01:51:36;;;;;;;;;12.25;9.50;;;;;7.19;100.00;99420.72;5114637;27;45670;-79
2023/03/08 01:54:13;;;;;;;;;19.00;12.00;;;;;7.15;100.00;99413.94;5094749;27;45501;-79
2023/03/08 01:56:40;;;;;;;;;18.50;12.00;;;;;7.12;100.00;99404.56;5112103;27;45570;-79
2023/03/08 01:59:05;;;;;;;;;16.75;11.00;;;;;7.15;100.00;99413.94;5100316;27;47067;-79
2023/03/08 02:01:32;;;;;;;;;13.75;10.50;;;;;7.15;100.00;99396.69;5080358;27;45369;-79
2023/03/08 02:03:58;;;;;;;;;19.50;11.50;;;;;7.13;100.00;99382.97;5097204;27;45535;-79
2023/03/08 02:06:23;;;;;;;;;15.75;12.00;;;;;7.12;100.00;99395.94;5080207;27;45345;-79
2023/03/08 02:08:49;;;;;;;;;16.25;11.75;;;;;7.08;100.00;99374.50;5097402;27;70388;-79
2023/03/08 02:11:15;;;;;;;;;15.50;9.00;;;;;7.09;100.00;99368.41;5096479;27;63112;-80
2023/03/08 02:13:41;;;;;;;;;15.25;12.00;;;;;7.09;100.00;99365.84;5098692;27;45340;-79
2023/03/08 02:16:09;;;;;;;;;19.50;12.00;;;;;7.04;100.00;99364.31;5096535;27;57026;-79
2023/03/08 02:18:34;;;;;;;;;15.00;8.75;;;;;7.02;100.00;99354.03;5098153;27;46204;-79
2023/03/08 02:21:00;;;;;;;;;16.00;14.75;;;;;7.02;100.00;99350.59;5079641;27;50768;-80
2023/03/08 02:23:26;;;;;;;;;22.50;12.75;;;;;6.98;100.00;99331.75;5098446;27;45390;-79
2023/03/08 02:26:01;;;;;;;;;15.00;12.75;;;;;7.02;100.00;99335.06;5097240;27;45415;-79
2023/03/08 02:28:27;;;;;;;;;12.00;7.50;;;;;6.99;100.00;99320.50;5118878;27;45309;-79
2023/03/08 02:30:54;;;;;;;;;24.00;13.75;;;;;6.92;100.00;99306.13;5100199;27;48648;-80
2023/03/08 02:33:19;;;;;;;;;11.50;11.00;;;;;7.01;100.00;99307.53;5118431;27;45398;-80
2023/03/08 02:35:45;;;;;;;;;18.50;13.75;;;;;7.01;100.00;99289.41;5100325;27;45348;-80
2023/03/08 02:38:13;;;;;;;;;18.00;11.50;;;;;6.99;100.00;99284.28;5118636;27;46192;-79
2023/03/08 02:40:39;;;;;;;;;15.00;12.50;;;;;6.99;100.00;99286.88;5099936;27;45347;-79
2023/03/08 02:43:04;;;;;;;;;15.75;11.00;;;;;7.01;100.00;99279.91;5118797;27;45347;-80
2023/03/08 02:45:31;;;;;;;;;21.50;14.75;;;;;7.01;100.00;99276.47;5118710;27;45458;-80
2023/03/08 02:47:57;;;;;;;;;15.00;13.50;;;;;6.95;100.00;99273.22;5118140;27;46447;-79
2023/03/08 02:50:22;;;;;;;;;16.75;13.25;;;;;6.94;100.00;99261.16;5118602;27;45405;-79
2023/03/08 02:52:47;;;;;;;;;18.50;11.00;;;;;7.00;100.00;99259.25;5114174;27;63813;-79
2023/03/08 02:55:13;;;;;;;;;22.50;12.75;;;;;6.95;100.00;99239.59;5097878;27;45395;-78
2023/03/08 02:57:38;;;;;;;;;9.25;7.00;;;;;6.98;100.00;99221.38;5096716;27;63941;-79
2023/03/08 03:00:04;;;;;;;;;15.25;11.50;;;;;7.01;100.00;99217.81;5078735;27;63527;-78
2023/03/08 03:02:32;;;;;;;;;16.75;11.25;;;;;7.01;100.00;99198.88;5097543;27;45435;-78
2023/03/08 03:04:57;;;;;;;;;14.00;8.00;;;;;6.96;100.00;99191.28;5097936;27;45408;-79
2023/03/08 03:07:22;;;;;;;;;18.00;11.75;;;;;6.96;100.00;99186.09;5096800;27;68796;-78
2023/03/08 03:09:48;;;;;;;;;14.50;11.00;;;;;7.00;100.00;99179.06;5095878;27;64378;-79
2023/03/08 03:12:13;;;;;;;;;15.25;9.00;;;;;6.96;100.00;99165.41;5097673;27;45404;-78
2023/03/08 03:14:38;;;;;;;;;16.25;11.00;;;;;7.00;100.00;99166.97;5097137;27;57624;-78
2023/03/08 03:17:04;;;;;;;;;17.75;13.00;;;;;7.01;100.00;99155.72;5096201;27;67088;-78
2023/03/08 03:19:29;;;;;;;;;17.25;12.25;;;;;7.01;100.00;99145.38;5097326;27;45343;-79
2023/03/08 03:21:54;;;;;;;;;10.75;10.00;;;;;7.05;100.00;99146.09;5096517;27;63218;-79
2023/03/08 03:24:20;;;;;;;;;11.75;9.50;;;;;7.06;100.00;99143.44;5097057;27;52222;-78
2023/03/08 03:26:45;;;;;;;;;18.50;12.00;;;;;7.11;100.00;99132.91;5096400;27;72247;-78
2023/03/08 03:29:10;;;;;;;;;12.00;9.00;;;;;7.09;100.00;99114.84;5097116;27;45468;-78
2023/03/08 03:31:36;;;;;;;;;12.00;11.00;;;;;7.11;100.00;99096.69;5097120;27;45389;-78
2023/03/08 03:34:01;;;;;;;;;18.75;11.00;;;;;7.12;100.00;99096.63;5098731;27;65531;-78
2023/03/08 03:36:27;;;;;;;;;13.25;5.75;;;;;7.10;100.00;99092.44;5097835;27;71929;-78
2023/03/08 03:38:52;;;;;;;;;15.50;13.00;;;;;7.07;100.00;99077.00;5097030;27;45346;-78
2023/03/08 03:41:20;;;;;;;;;16.25;9.50;;;;;7.11;100.00;99065.63;5077912;27;64045;-78
2023/03/08 03:43:46;;;;;;;;;11.75;8.25;;;;;7.13;100.00;99061.22;5097572;27;45259;-78
2023/03/08 03:46:14;;;;;;;;;17.50;11.75;;;;;7.04;100.00;99038.31;5096480;27;46369;-78
2023/03/08 03:48:40;;;;;;;;;15.50;11.75;;;;;7.11;100.00;99040.63;5078939;27;45369;-79
2023/03/08 03:51:10;;;;;;;;;14.75;10.00;;;;;7.11;100.00;99032.84;5097186;27;45435;-78
2023/03/08 03:53:35;;;;;;;;;12.00;8.25;;;;;7.05;100.00;99038.25;5078673;27;45424;-78
2023/03/08 03:56:04;;;;;;;;;10.00;8.00;;;;;6.99;100.00;99028.19;5095315;27;45443;-79
2023/03/08 03:58:30;;;;;;;;;9.00;7.00;;;;;6.94;100.00;99018.00;5096481;27;45776;-78
2023/03/08 04:00:55;;;;;;;;;8.25;7.50;;;;;7.03;100.00;99028.91;5095726;27;61793;-78
2023/03/08 04:03:20;;;;;;;;;9.00;8.50;;;;;7.05;100.00;99027.09;5096048;27;66961;-78
2023/03/08 04:05:46;;;;;;;;;14.50;10.00;;;;;7.06;100.00;99021.84;5096735;27;45537;-79
2023/03/08 04:08:11;;;;;;;;;11.00;8.00;;;;;7.07;100.00;99018.34;5096618;27;45416;-78
2023/03/08 04:10:36;;;;;;;;;8.50;8.00;;;;;7.09;100.00;99007.94;5094893;27;59156;-79
2023/03/08 04:13:02;;;;;;;;;11.75;8.50;;;;;7.07;100.00;98989.03;5095961;27;66159;-79
2023/03/08 04:15:27;;;;;;;;;8.00;8.00;;;;;7.15;100.00;98995.59;5096225;27;45578;-78
2023/03/08 04:17:53;;;;;;;;;13.25;5.00;;;;;7.15;100.00;98986.97;5096567;27;45426;-79
2023/03/08 04:20:18;;;;;;;;;8.00;5.50;;;;;7.19;100.00;98970.41;5096676;27;45367;-78
2023/03/08 04:22:44;;;;;;;;;15.50;7.50;;;;;7.21;100.00;98966.03;5096137;27;45530;-78
2023/03/08 04:25:09;;;;;;;;;7.00;6.00;;;;;7.26;100.00;98960.63;5095531;27;68068;-78
2023/03/08 04:27:34;;;;;;;;;5.25;5.25;;;;;7.24;100.00;98944.31;5095570;27;67169;-78
2023/03/08 04:30:00;;;;;;;;;6.25;5.50;;;;;7.27;100.00;98945.03;5095497;27;56857;-78
2023/03/08 04:32:25;;;;;;;;;6.75;5.75;;;;;7.33;100.00;98955.09;5096708;27;45290;-78
2023/03/08 04:34:51;;;;;;;;;10.75;6.00;;;;;7.30;100.00;98957.00;5096291;27;46447;-78
2023/03/08 04:37:16;;;;;;;;;6.75;4.25;;;;;7.31;100.00;98937.97;5095406;27;66219;-78
2023/03/08 04:39:41;;;;;;;;;4.50;4.00;;;;;7.33;100.00;98944.75;5077266;27;64118;-78
2023/03/08 04:42:07;;;;;;;;;5.00;5.00;;;;;7.31;100.00;98945.75;5095881;27;54342;-79
2023/03/08 04:44:32;;;;;;;;;11.75;4.75;;;;;7.32;100.00;98914.63;5095739;27;46438;-78
2023/03/08 04:46:57;;;;;;;;;3.00;3.00;;;;;7.36;100.00;98949.81;5095773;27;53764;-78
2023/03/08 04:49:23;;;;;;;;;6.25;5.00;;;;;7.36;100.00;98900.63;5095282;27;65725;-79
2023/03/08 04:51:49;;;;;;;;;4.00;4.00;;;;;7.39;100.00;98906.56;5096235;27;45229;-79
2023/03/08 04:54:14;;;;;;;;;3.50;2.00;;;;;7.38;100.00;98957.50;5095188;27;62482;-78
2023/03/08 04:56:39;;;;;;;;;1.75;1.00;;;;;7.33;100.00;98908.53;5095326;27;57609;-79
2023/03/08 04:59:05;;;;;;;;;5.00;2.00;;;;;7.34;100.00;98842.09;5076482;27;63517;-79
2023/03/08 05:01:30;;;;;;;;;2.50;1.00;;;;;7.30;100.00;98882.78;5095567;27;60226;-78
2023/03/08 05:03:55;;;;;;;;;4.25;1.00;;;;;7.33;100.00;98898.16;5095987;27;46272;-79
2023/03/08 05:06:23;;;;;;;;;4.25;4.00;;;;;7.32;100.00;98891.31;5095040;27;67987;-79
2023/03/08 05:08:49;;;;;;;;;2.00;2.00;;;;;7.34;100.00;98862.78;5077734;27;45375;-78
2023/03/08 05:11:23;;;;;;;;;4.00;1.00;;;;;7.32;100.00;98886.16;5096008;27;45480;-78
2023/03/08 05:13:49;;;;;;;;;1.75;1.75;;;;;7.38;100.00;98882.44;5095594;27;46149;-78
2023/03/08 05:16:14;;;;;;;;;4.00;1.00;;;;;7.40;100.00;98864.25;5095757;27;45291;-78
2023/03/08 05:18:40;;;;;;;;;4.00;3.00;;;;;7.41;100.00;98884.03;5094932;27;66118;-78
2023/03/08 05:21:09;;;;;;;;;2.00;2.00;;;;;7.40;100.00;98879.78;5095904;27;45352;-78
2023/03/08 05:23:34;;;;;;;;;2.50;1.50;;;;;7.46;100.00;98887.25;5077537;27;45410;-78
2023/03/08 05:26:01;;;;;;;;;9.00;2.00;;;;;7.49;100.00;98856.91;5095583;27;45330;-78
2023/03/08 05:28:28;;;;;;;;;2.25;1.00;;;;;7.53;100.00;98848.06;5077508;27;45386;-79
2023/03/08 05:31:12;;;;;;;;;5.00;2.00;;;;;7.57;100.00;98885.03;5094407;27;45539;-78
2023/03/08 05:33:38;;;;;;;;;5.00;1.00;;;;;7.58;100.00;98868.59;5097088;27;45452;-78
2023/03/08 05:36:04;;;;;;;;;4.75;2.00;;;;;7.59;100.00;98846.13;5101018;27;45793;-79
2023/03/08 05:38:30;;;;;;;;;2.50;2.00;;;;;7.63;100.00;98816.56;5104739;27;45376;-79
2023/03/08 05:41:02;;;;;;;;;1.50;1.50;;;;;7.65;100.00;98833.72;5099418;27;45357;-79
2023/03/08 05:43:27;;;;;;;;;2.00;2.00;;;;;7.67;100.00;98852.63;5099093;27;46450;-79
2023/03/08 05:45:58;;;;;;;;;4.00;1.00;;;;;7.74;100.00;98847.97;5098693;27;48157;-79
2023/03/08 05:48:24;;;;;;;;;6.00;1.75;;;;;7.77;100.00;98844.41;5099244;27;45459;-79
2023/03/08 05:50:49;;;;;;;;;2.00;2.00;;;;;7.77;100.00;98829.72;5099247;27;45458;-79
2023/03/08 05:53:15;;;;;;;;;2.00;1.50;;;;;7.88;100.00;98852.50;5098839;27;45693;-78
2023/03/08 05:55:40;;;;;;;;;3.75;1.25;;;;;7.90;100.00;98812.66;5097698;27;69528;-79
2023/03/08 05:58:05;;;;;;;;;1.75;1.75;;;;;7.94;100.00;98832.31;5097992;27;64886;-79
2023/03/08 06:00:31;;;;;;;;;2.00;1.00;;;;;8.02;100.00;98839.72;5098452;27;56870;-79
2023/03/08 06:02:58;;;;;;;;;2.00;1.75;;;;;8.07;100.00;98821.38;5099006;27;45403;-79
2023/03/08 06:05:24;;;;;;;;;4.00;0.50;;;;;8.14;100.00;98853.84;5098913;27;45851;-79
2023/03/08 06:07:49;;;;;;;;;5.25;2.00;;;;;8.18;100.00;98828.63;5098228;27;63451;-79
2023/03/08 06:10:16;;;;;;;;;3.00;2.00;;;;;8.23;100.00;98839.59;5097748;27;63137;-79
2023/03/08 06:12:41;;;;;;;;;4.25;1.50;;;;;8.28;100.00;98847.97;5080595;27;45672;-79
2023/03/08 06:15:07;;;;;;;;;2.00;2.00;;;;;8.29;100.00;98847.88;5098084;27;66164;-80
2023/03/08 06:17:33;;;;;;;;;0.75;0.75;;;;;8.39;100.00;98837.88;5098933;27;45459;-80
2023/03/08 06:19:58;;;;;;;;;5.00;2.00;;;;;8.45;100.00;98860.13;5097403;27;45282;-78
2023/03/08 06:22:23;;;;;;;;;0.25;0.25;;;;;8.53;100.00;98863.19;5097791;27;68419;-79
2023/03/08 06:24:49;;;;;;;;;3.50;1.00;;;;;8.57;100.00;98861.28;5097587;27;64488;-78
2023/03/08 06:27:16;;;;;;;;;2.00;2.00;;;;;8.66;100.00;98872.00;5098713;27;45249;-79
2023/03/08 06:29:41;;;;;;;;;4.75;1.50;;;;;8.67;100.00;98865.06;5098639;27;45346;-79
2023/03/08 06:32:06;;;;;;;;;1.00;0.00;;;;;8.72;100.00;98861.31;5097452;27;71336;-78
2023/03/08 06:34:32;;;;;;;;;0.25;0.25;;;;;8.77;100.00;98860.25;5080118;27;45504;-79
2023/03/08 06:36:58;;;;;;;;;2.00;1.00;;;;;8.81;100.00;98861.78;5098728;27;45372;-79
2023/03/08 06:39:24;;;;;;;;;2.00;1.00;;;;;8.82;100.00;98853.06;5096820;27;45323;-79
2023/03/08 06:41:49;;;;;;;;;3.25;1.00;;;;;8.94;100.00;98852.44;5098382;27;46437;-79
2023/03/08 06:44:15;;;;;;;;;1.50;1.00;;;;;9.02;100.00;98862.41;5097515;27;62962;-79
2023/03/08 06:46:40;;;;;;;;;1.00;1.00;;;;;9.07;100.00;98863.84;5097291;27;62583;-79
2023/03/08 06:49:06;;;;;;;;;2.00;1.00;;;;;9.15;100.00;98844.44;5098001;27;45480;-79
2023/03/08 06:51:32;;;;;;;;;1.00;1.00;;;;;9.21;100.00;98844.94;5098286;27;45487;-79
2023/03/08 06:53:57;;;;;;;;;4.75;1.00;;;;;9.25;100.00;98840.44;5096421;27;45269;-79
2023/03/08 06:56:23;;;;;;;;;1.75;1.00;;;;;9.33;100.00;98838.25;5097552;27;66178;-79
2023/03/08 06:58:48;;;;;;;;;2.00;1.00;;;;;9.38;100.00;98823.25;5097989;27;45234;-79
2023/03/08 07:01:14;;;;;;;;;0.00;0.00;;;;;9.43;100.00;98805.66;5098072;27;46603;-79
2023/03/08 07:03:39;;;;;;;;;1.25;1.25;;;;;9.51;100.00;98820.84;5098082;27;45291;-79
2023/03/08 07:06:08;;;;;;;;;2.75;1.00;;;;;9.61;100.00;98823.75;5098114;27;45294;-80
2023/03/08 07:08:33;;;;;;;;;1.00;0.00;;;;;9.68;100.00;98830.28;5079386;27;45416;-79
2023/03/08 07:10:58;;;;;;;;;4.25;1.00;;;;;9.74;100.00;98822.16;5097611;27;53051;-79
2023/03/08 07:13:24;;;;;;;;;2.00;0.75;;;;;9.78;100.00;98808.06;5097781;27;45455;-79
2023/03/08 07:15:50;;;;;;;;;1.00;1.00;;;;;9.91;100.00;98817.75;5107277;27;45298;-78
2023/03/08 07:18:16;;;;;;;;;0.00;0.00;;;;;9.97;100.00;98820.81;5097827;27;45663;-81
2023/03/08 07:20:41;;;;;;;;;1.00;0.25;;;;;10.09;100.00;98806.31;5099731;27;46236;-83
2023/03/08 07:23:07;;;;;;;;;1.25;1.00;;;;;10.12;100.00;98800.09;5099373;27;45484;-83
2023/03/08 07:25:32;;;;;;;;;2.00;0.75;;;;;10.18;100.00;98802.34;5116747;27;61784;-84
2023/03/08 07:27:58;;;;;;;;;1.75;0.25;;;;;10.27;100.00;98813.03;5099147;27;46684;-82
2023/03/08 07:30:24;;;;;;;;;0.00;0.00;;;;;10.32;100.00;98825.78;5118081;27;47072;-86
2023/03/08 07:32:52;;;;;;;;;2.50;1.00;;;;;10.40;100.00;98839.22;5117971;27;55740;-84
2023/03/08 07:35:17;;;;;;;;;2.00;0.50;;;;;10.44;100.00;98830.28;5099950;27;45399;-85
2023/03/08 07:37:44;;;;;;;;;0.00;0.00;;;;;10.45;100.00;98831.13;5096180;27;45567;-86
2023/03/08 07:40:11;;;;;;;;;6.00;0.25;;;;;10.54;100.00;98834.94;5079489;27;47288;-83
2023/03/08 07:42:36;;;;;;;;;0.00;0.00;;;;;10.65;100.00;98851.59;5117817;27;45276;-83
2023/03/08 07:45:02;;;;;;;;;0.00;0.00;;;;;10.74;100.00;98852.81;5117908;27;57659;-88
2023/03/08 07:47:28;;;;;;;;;1.00;1.00;;;;;10.82;100.00;98852.34;5117262;27;45404;-85
2023/03/08 07:49:53;;;;;;;;;5.25;0.00;;;;;11.00;100.00;98850.41;5099658;27;47762;-90
2023/03/08 07:52:18;;;;;;;;;0.25;0.00;;;;;11.14;100.00;98852.16;5100746;27;45251;-89
2023/03/08 07:54:44;;;;;;;;;0.75;0.00;;;;;11.24;100.00;98869.75;5101209;27;45458;-87
2023/03/08 07:57:12;;;;;;;;;0.00;0.00;;;;;11.32;100.00;98845.00;5097198;27;47342;-89
2023/03/08 07:59:38;;;;;;;;;0.00;0.00;;;;;11.40;100.00;98829.72;5116866;27;45379;-88
2023/03/08 08:02:05;;;;;;;;;0.50;0.00;;;;;11.52;100.00;98835.94;5095765;27;45486;-85
2023/03/08 08:04:36;;;;;;;;;0.00;0.00;;;;;11.71;100.00;98857.28;5096010;27;45456;-85
2023/03/08 08:07:02;;;;;;;;;0.00;0.00;;;;;11.77;100.00;98861.25;5113231;27;45664;-87
2023/03/08 08:09:28;;;;;;;;;0.00;0.00;;;;;11.81;100.00;98849.69;5086550;27;45848;-85
2023/03/08 08:11:53;;;;;;;;;0.50;0.00;;;;;11.96;100.00;98855.72;5079542;27;45870;-89
2023/03/08 08:14:18;;;;;;;;;0.00;0.00;;;;;12.00;100.00;98859.84;5089073;27;45724;-89
2023/03/08 08:16:49;;;;;;;;;0.50;0.25;;;;;12.11;100.00;98873.00;5093417;27;45559;-88
2023/03/08 08:19:16;;;;;;;;;2.25;0.00;;;;;12.24;100.00;98872.19;5092359;27;47222;-89
2023/03/08 08:21:43;;;;;;;;;1.75;0.00;;;;;12.33;100.00;98868.97;5068963;27;45536;-86
2023/03/08 08:24:09;;;;;;;;;0.25;0.00;;;;;12.51;100.00;98872.97;5098122;27;45848;-87
2023/03/08 08:26:34;;;;;;;;;0.00;0.00;;;;;12.61;100.00;98867.16;5092405;27;57182;-87
2023/03/08 08:29:02;;;;;;;;;0.00;0.00;;;;;12.74;100.00;98876.69;5076794;27;56147;-87
2023/03/08 08:31:39;;;;;;;;;0.25;0.00;;;;;12.80;100.00;98867.59;5094220;27;45510;-87
2023/03/08 08:34:07;;;;;;;;;0.00;0.00;;;;;12.91;100.00;98867.69;5116774;27;45338;-87
2023/03/08 08:36:35;;;;;;;;;0.00;0.00;;;;;12.97;100.00;98882.94;5115021;27;45748;-88
2023/03/08 08:39:03;;;;;;;;;0.00;0.00;;;;;12.96;100.00;98870.84;5089463;27;47201;-86
2023/03/08 08:41:31;;;;;;;;;2.25;0.00;;;;;12.94;100.00;98883.13;5084589;27;46912;-83
2023/03/08 08:44:04;;;;;;;;;1.00;0.00;;;;;12.92;100.00;98886.78;5081525;27;47029;-87
2023/03/08 08:46:45;;;;;;;;;;;;;;;;;;;;;
2023/03/08 08:49:11;;;;;;;;;0.00;0.00;;;;;12.79;100.00;98898.06;5088331;27;74080;-85
2023/03/08 08:51:36;;;;;;;;;0.00;0.00;;;;;12.75;100.00;98899.22;5097805;27;45786;-85
2023/03/08 08:54:02;;;;;;;;;1.00;0.00;;;;;12.70;100.00;98929.19;5085762;27;45532;-83
2023/03/08 08:56:28;;;;;;;;;0.00;0.00;;;;;12.57;100.00;98916.97;5110444;27;45548;-85
2023/03/08 08:58:55;;;;;;;;;0.50;0.50;;;;;12.52;100.00;98899.94;5103278;27;46701;-85
2023/03/08 09:01:26;;;;;;;;;0.50;0.00;;;;;12.58;100.00;98915.19;5075734;27;46081;-85
2023/03/08 09:03:51;;;;;;;;;0.25;0.25;;;;;12.61;100.00;98911.50;5081910;27;45353;-85
2023/03/08 09:06:21;;;;;;;;;0.75;0.75;;;;;12.57;100.00;98910.88;5113329;27;45543;-84
2023/03/08 09:08:51;;;;;;;;;1.00;0.25;;;;;12.62;100.00;98907.97;5091837;27;48457;-82
2023/03/08 09:11:16;;;;;;;;;2.00;1.00;;;;;12.67;100.00;98909.34;5110256;27;45509;-81
2023/03/08 09:13:41;;;;;;;;;0.00;0.00;;;;;12.75;100.00;98893.16;5094055;27;45299;-81
2023/03/08 09:16:18;;;;;;;;;0.00;0.00;;;;;12.93;100.00;98907.59;5111809;27;64120;-82
2023/03/08 09:18:43;;;;;;;;;1.00;0.50;;;;;13.04;100.00;98903.41;5095999;27;46180;-82
2023/03/08 09:21:09;;;;;;;;;2.25;0.25;;;;;13.18;100.00;98911.13;5111317;27;45406;-83
2023/03/08 09:23:35;;;;;;;;;1.25;1.00;;;;;13.20;100.00;98914.47;5096217;27;46208;-83
2023/03/08 09:26:00;;;;;;;;;4.00;1.00;;;;;13.25;100.00;98912.38;5112377;27;45322;-83
2023/03/08 09:28:25;;;;;;;;;2.00;1.00;;;;;13.27;100.00;98912.28;5099568;27;66576;-83
2023/03/08 09:30:51;;;;;;;;;0.00;0.00;;;;;13.29;100.00;98902.56;5085373;27;67114;-82
2023/03/08 09:33:16;;;;;;;;;0.00;0.00;;;;;13.31;100.00;98900.69;5111359;27;45802;-81
2023/03/08 09:35:42;;;;;;;;;2.00;0.00;;;;;13.34;100.00;98913.56;5095577;27;45482;-80
2023/03/08 09:38:07;;;;;;;;;0.00;0.00;;;;;13.40;100.00;98912.31;5101377;27;67753;-79
2023/03/08 09:40:39;;;;;;;;;0.00;0.00;;;;;13.40;100.00;98920.97;5107243;27;62188;-81
2023/03/08 09:43:05;;;;;;;;;0.50;0.50;;;;;13.31;100.00;98919.81;5086720;27;45771;-80
2023/03/08 09:45:32;;;;;;;;;0.00;0.00;;;;;13.40;100.00;98922.75;5096854;27;45395;-82
2023/03/08 09:48:14;;;;;;;;;2.00;0.75;;;;;13.41;100.00;98924.41;5100707;27;47061;-83
2023/03/08 09:50:48;;;;;;;;;0.75;0.00;;;;;13.45;100.00;98925.88;5095399;27;45659;-83
2023/03/08 09:53:21;;;;;;;;;0.00;0.00;;;;;13.52;100.00;98938.41;5098990;27;45405;-83
2023/03/08 09:56:36;;;;;;;;;1.75;1.00;;;;;13.65;100.00;98937.53;5106868;27;46958;-84
2023/03/08 09:59:23;;;;;;;;;0.50;0.00;;;;;13.78;100.00;98930.53;5080500;27;48320;-83
2023/03/08 10:02:16;;;;;;;;;2.00;0.75;;;;;13.93;100.00;98929.44;5114794;27;45367;-83
2023/03/08 10:04:47;;;;;;;;;0.00;0.00;;;;;14.10;100.00;98940.47;5089568;27;45372;-85
2023/03/08 10:07:20;;;;;;;;;2.00;0.00;;;;;14.23;100.00;98938.63;5097865;27;45484;-85
2023/03/08 10:10:02;;;;;;;;;0.00;0.00;;;;;14.40;100.00;98932.16;5094684;27;46421;-83
2023/03/08 10:12:36;;;;;;;;;0.00;0.00;;;;;14.58;100.00;98947.47;5116192;27;46069;-84
2023/03/08 10:15:13;;;;;;;;;1.00;0.00;;;;;14.71;100.00;98949.09;5115735;27;45732;-84
2023/03/08 10:17:45;;;;;;;;;3.50;0.50;;;;;14.87;100.00;98951.38;5081600;27;45567;-82
2023/03/08 10:20:24;;;;;;;;;2.00;1.00;;;;;15.16;100.00;98948.34;5107371;27;48275;-81
2023/03/08 10:22:57;;;;;;;;;0.00;0.00;;;;;15.40;100.00;98935.13;5088401;27;45693;-83
2023/03/08 10:25:29;;;;;;;;;1.25;0.00;;;;;15.57;100.00;98936.44;5097449;27;45484;-83
2023/03/08 10:27:57;;;;;;;;;0.00;0.00;;;;;15.80;100.00;98932.03;5101643;27;45477;-85
2023/03/08 10:30:26;;;;;;;;;0.00;0.00;;;;;16.13;100.00;98925.03;5117047;27;46334;-84
2023/03/08 10:32:55;;;;;;;;;1.00;0.00;;;;;16.42;100.00;98927.91;5087027;27;46277;-84
2023/03/08 10:35:31;;;;;;;;;0.00;0.00;;;;;16.53;100.00;98953.31;5074976;27;45365;-84
2023/03/08 10:37:57;;;;;;;;;0.50;0.00;;;;;16.64;100.00;98937.50;5102100;27;45542;-85
2023/03/08 10:40:22;;;;;;;;;0.00;0.00;;;;;16.71;100.00;98947.47;5087537;27;47110;-85
2023/03/08 10:42:52;;;;;;;;;0.00;0.00;;;;;16.82;100.00;98947.41;5098877;27;45563;-82
2023/03/08 10:45:24;;;;;;;;;1.00;0.00;;;;;16.91;100.00;98957.19;5099537;27;45375;-84
2023/03/08 10:47:59;;;;;;;;;1.00;0.00;;;;;16.93;100.00;98968.41;5080318;27;45397;-84
2023/03/08 10:50:34;;;;;;;;;0.50;0.00;;;;;16.99;100.00;98946.91;5097277;27;46175;-87
2023/03/08 10:53:15;;;;;;;;;1.00;0.00;;;;;17.12;100.00;98961.63;5112507;27;45690;-84
2023/03/08 10:55:44;;;;;;;;;1.00;0.00;;;;;17.04;100.00;98964.88;5084238;27;45494;-86
2023/03/08 10:58:40;;;;;;;;;0.25;0.00;;;;;17.11;100.00;98968.69;5091771;27;45491;-83
2023/03/08 11:01:26;;;;;;;;;0.00;0.00;;;;;17.29;100.00;98957.53;5090146;27;47069;-87
2023/03/08 11:04:18;;;;;;;;;2.00;0.00;;;;;17.45;100.00;98962.34;5111901;27;45764;-85
2023/03/08 11:06:46;;;;;;;;;0.00;0.00;;;;;17.47;100.00;98966.50;5109467;27;45362;-84
2023/03/08 11:09:25;;;;;;;;;0.00;0.00;;;;;17.41;100.00;98965.22;5094570;27;45523;-88
2023/03/08 11:11:50;;;;;;;;;0.00;0.00;;;;;17.53;100.00;98971.25;5102178;27;47313;-87
2023/03/08 11:14:19;;;;;;;;;1.00;0.00;;;;;17.60;100.00;98967.09;5110586;27;45745;-88
2023/03/08 11:16:54;;;;;;;;;0.75;0.00;;;;;17.55;100.00;98974.59;5098321;27;45571;-86
2023/03/08 11:19:59;;;;;;;;;0.00;0.00;;;;;17.46;100.00;98970.09;5095555;27;45428;-88
2023/03/08 11:22:48;;;;;;;;;0.00;0.00;;;;;17.37;100.00;98976.16;5096062;27;46404;-84
2023/03/08 11:25:31;;;;;;;;;0.00;0.00;;;;;17.34;100.00;98966.72;5095821;27;45840;-88
2023/03/08 11:28:13;;;;;;;;;0.50;0.00;;;;;17.45;100.00;98967.59;5077914;27;45400;-90
2023/03/08 11:31:12;;;;;;;;;2.00;0.00;;;;;17.63;100.00;98986.25;5077137;27;45447;-86
2023/03/08 11:34:15;;;;;;;;;1.00;0.00;;;;;17.84;100.00;98971.22;5114579;27;45720;-88
2023/03/08 11:36:55;;;;;;;;;0.00;0.00;;;;;18.19;100.00;98975.22;5099505;27;45743;-88
2023/03/08 11:39:30;;;;;;;;;0.00;0.00;;;;;18.32;100.00;98974.94;5101275;27;45506;-87
2023/03/08 11:45:17;;;;;;;;;0.50;0.00;;;;;17.69;100.00;98985.72;5053858;28;45478;-88
2023/03/08 11:47:54;;;;;;;;;0.75;0.00;;;;;17.58;100.00;98969.03;5036103;28;45635;-88
2023/03/08 11:50:21;;;;;;;;;0.00;0.00;;;;;17.64;100.00;98977.38;5036657;28;45471;-87
2023/03/08 11:53:28;;;;;;;;;0.00;0.00;;;;;17.69;100.00;98977.81;5036845;28;45482;-85